Airfield :
LOGIN :

Register | Disclaimer

   EN    FR    IT 

 










Legend :    VFR   Marginal VFR   IFR   Intensive IFR   Very Intensive IFR
Visi :
Ceiling :
>= 8 km
>= 3000ft
5 to 8 km
1000 to 3000 ft
1500m to 5 km
500 to 1000 ft
800 to 1500m
200 to 500 ft
< 800m
< 200 ft
Symbols :   Thunderstorms  Fog  Heavy snow  Heavy precipitations  Wind > 20 kt
SIGMETs :     Misc.  Thunderstorms  Icing  Turbulence  Mountain Waves  Volcanic Ashes






- Airport Elevation : 274 ft
- IATA code : PUY


LDPL - Pula

CURRENT METAR :
  • 012330Z 06003KT 040V100 CAVOK 23/16 Q1015

EXPIRED METARs :
  • 012300Z 07003KT CAVOK 24/16 Q1014
  • 011630Z 13004KT 090V230 CAVOK 30/20 Q1013 NOSIG
  • 012200Z 08004KT CAVOK 23/17 Q1014
  • 012130Z 09006KT CAVOK 23/19 Q1014
  • 012100Z 09004KT CAVOK 22/18 Q1014 BECMG 06007KT

TAF TAF LDPL
Valid from the 01 at 18:00 until the 02 at 18:00 UTC


011725Z 0118/0218 12005KT CAVOK TX32/0213Z TN21/0203Z
BECMG 0120/0122 06007KT
BECMG 0204/0206 06012KT
BECMG 0213/0215 28008KT



MET'MAP, your aeronautical weather chart ! - Copyright ORBIFLY December 2007 - Disclaimer

ORBIFLY MET'MAP TEAM :

Programming & Development : Alexandra Zaïnal
Original concept : Baudouin d'Aumeries
Technical & hardware support : Manuel Goepfert
Assistance : Marc-Olivier Méhu




SOURCES & CREDITS :

   NOAA